sensor_id;sensor_type;location;lat;lon;timestamp;pressure;altitude;pressure_sealevel;temperature;humidity
22031;BME280;11179;52.106;21.024;2023-04-28T00:01:21;100947.66;;;1.73;62.28
22031;BME280;11179;52.106;21.024;2023-04-28T00:03:47;100943.81;;;1.67;62.28
22031;BME280;11179;52.106;21.024;2023-04-28T00:06:12;100935.59;;;1.61;62.24
22031;BME280;11179;52.106;21.024;2023-04-28T00:08:39;100937.19;;;1.55;62.40
22031;BME280;11179;52.106;21.024;2023-04-28T00:11:11;100940.06;;;1.53;62.34
22031;BME280;11179;52.106;21.024;2023-04-28T00:13:37;100937.47;;;1.45;62.27
22031;BME280;11179;52.106;21.024;2023-04-28T00:16:03;100939.50;;;1.43;62.40
22031;BME280;11179;52.106;21.024;2023-04-28T00:18:28;100939.22;;;1.38;62.36
22031;BME280;11179;52.106;21.024;2023-04-28T00:20:54;100945.81;;;1.36;62.40
22031;BME280;11179;52.106;21.024;2023-04-28T00:23:20;100946.00;;;1.34;62.52
22031;BME280;11179;52.106;21.024;2023-04-28T00:25:52;100947.25;;;1.32;62.75
22031;BME280;11179;52.106;21.024;2023-04-28T00:28:19;100948.63;;;1.28;62.70
22031;BME280;11179;52.106;21.024;2023-04-28T00:30:44;100948.31;;;1.22;62.58
22031;BME280;11179;52.106;21.024;2023-04-28T00:33:10;100941.97;;;1.15;62.71
22031;BME280;11179;52.106;21.024;2023-04-28T00:35:36;100948.72;;;1.19;63.08
22031;BME280;11179;52.106;21.024;2023-04-28T00:38:01;100934.88;;;1.14;62.88
22031;BME280;11179;52.106;21.024;2023-04-28T00:40:33;100939.63;;;1.12;63.24
22031;BME280;11179;52.106;21.024;2023-04-28T00:42:59;100934.94;;;1.06;62.98
22031;BME280;11179;52.106;21.024;2023-04-28T00:45:24;100947.66;;;1.06;63.00
22031;BME280;11179;52.106;21.024;2023-04-28T00:47:49;100946.31;;;1.02;62.79
22031;BME280;11179;52.106;21.024;2023-04-28T00:50:15;100935.09;;;0.90;63.16
22031;BME280;11179;52.106;21.024;2023-04-28T00:52:41;100922.28;;;0.84;63.26
22031;BME280;11179;52.106;21.024;2023-04-28T00:55:08;100943.66;;;0.94;63.43
22031;BME280;11179;52.106;21.024;2023-04-28T00:57:34;100937.81;;;0.90;63.20
22031;BME280;11179;52.106;21.024;2023-04-28T01:00:00;100943.38;;;0.89;63.15
22031;BME280;11179;52.106;21.024;2023-04-28T01:02:26;100944.22;;;0.89;63.45
22031;BME280;11179;52.106;21.024;2023-04-28T01:04:55;100928.28;;;0.79;63.23
22031;BME280;11179;52.106;21.024;2023-04-28T01:07:21;100937.56;;;0.77;63.30
22031;BME280;11179;52.106;21.024;2023-04-28T01:09:46;100947.53;;;0.76;63.28
22031;BME280;11179;52.106;21.024;2023-04-28T01:12:12;100943.69;;;0.71;63.39
22031;BME280;11179;52.106;21.024;2023-04-28T01:14:37;100958.88;;;0.72;63.59
22031;BME280;11179;52.106;21.024;2023-04-28T01:17:03;100950.47;;;0.67;63.38
22031;BME280;11179;52.106;21.024;2023-04-28T01:19:28;100955.22;;;0.65;63.44
22031;BME280;11179;52.106;21.024;2023-04-28T01:21:54;100948.00;;;0.57;63.46
22031;BME280;11179;52.106;21.024;2023-04-28T01:24:19;100949.19;;;0.55;63.39
22031;BME280;11179;52.106;21.024;2023-04-28T01:26:45;100937.09;;;0.50;63.50
22031;BME280;11179;52.106;21.024;2023-04-28T01:29:10;100957.13;;;0.56;63.29
22031;BME280;11179;52.106;21.024;2023-04-28T01:31:36;100948.06;;;0.49;63.84
22031;BME280;11179;52.106;21.024;2023-04-28T01:34:01;100944.53;;;0.48;63.98
22031;BME280;11179;52.106;21.024;2023-04-28T01:36:26;100949.59;;;0.43;63.84
22031;BME280;11179;52.106;21.024;2023-04-28T01:38:52;100950.28;;;0.45;64.16
22031;BME280;11179;52.106;21.024;2023-04-28T01:41:18;100960.25;;;0.45;64.05
22031;BME280;11179;52.106;21.024;2023-04-28T01:43:43;100951.00;;;0.39;63.81
22031;BME280;11179;52.106;21.024;2023-04-28T01:46:09;100953.38;;;0.34;63.83
22031;BME280;11179;52.106;21.024;2023-04-28T01:48:35;100959.81;;;0.33;63.96
22031;BME280;11179;52.106;21.024;2023-04-28T01:51:00;100961.16;;;0.29;64.07
22031;BME280;11179;52.106;21.024;2023-04-28T01:53:26;100951.44;;;0.20;64.15
22031;BME280;11179;52.106;21.024;2023-04-28T01:55:52;100966.28;;;0.24;64.32
22031;BME280;11179;52.106;21.024;2023-04-28T01:58:17;100958.16;;;0.24;64.30
22031;BME280;11179;52.106;21.024;2023-04-28T02:00:43;100958.16;;;0.24;64.35
22031;BME280;11179;52.106;21.024;2023-04-28T02:03:08;100941.31;;;0.14;64.31
22031;BME280;11179;52.106;21.024;2023-04-28T02:05:33;100954.47;;;0.17;64.33
22031;BME280;11179;52.106;21.024;2023-04-28T02:07:58;100946.94;;;0.12;64.24
22031;BME280;11179;52.106;21.024;2023-04-28T02:10:24;100956.50;;;0.15;64.34
22031;BME280;11179;52.106;21.024;2023-04-28T02:12:49;100959.75;;;0.10;64.27
22031;BME280;11179;52.106;21.024;2023-04-28T02:15:15;100958.91;;;0.10;64.35
22031;BME280;11179;52.106;21.024;2023-04-28T02:17:41;100954.38;;;0.02;64.35
22031;BME280;11179;52.106;21.024;2023-04-28T02:20:06;100964.84;;;0.05;64.51
22031;BME280;11179;52.106;21.024;2023-04-28T02:22:32;100966.03;;;0.03;64.65
22031;BME280;11179;52.106;21.024;2023-04-28T02:24:57;100962.34;;;-0.04;64.69
22031;BME280;11179;52.106;21.024;2023-04-28T02:27:23;100967.41;;;-0.01;64.58
22031;BME280;11179;52.106;21.024;2023-04-28T02:29:48;100962.19;;;-0.03;64.85
22031;BME280;11179;52.106;21.024;2023-04-28T02:32:13;100955.44;;;-0.07;65.18
22031;BME280;11179;52.106;21.024;2023-04-28T02:34:39;100963.19;;;-0.04;65.15
22031;BME280;11179;52.106;21.024;2023-04-28T02:37:04;100965.22;;;-0.06;65.25
22031;BME280;11179;52.106;21.024;2023-04-28T02:39:30;100968.94;;;-0.07;65.12
22031;BME280;11179;52.106;21.024;2023-04-28T02:41:57;100968.59;;;-0.12;65.07
22031;BME280;11179;52.106;21.024;2023-04-28T02:44:22;100970.84;;;-0.15;65.17
22031;BME280;11179;52.106;21.024;2023-04-28T02:46:48;100958.34;;;-0.25;65.21
22031;BME280;11179;52.106;21.024;2023-04-28T02:49:13;100964.59;;;-0.24;65.24
22031;BME280;11179;52.106;21.024;2023-04-28T02:51:39;100950.97;;;-0.31;65.15
22031;BME280;11179;52.106;21.024;2023-04-28T02:54:04;100966.63;;;-0.26;65.35
22031;BME280;11179;52.106;21.024;2023-04-28T02:56:30;100955.03;;;-0.35;65.42
22031;BME280;11179;52.106;21.024;2023-04-28T02:58:55;100962.94;;;-0.33;65.48
22031;BME280;11179;52.106;21.024;2023-04-28T03:01:21;100970.19;;;-0.34;65.63
22031;BME280;11179;52.106;21.024;2023-04-28T03:03:46;100962.28;;;-0.35;65.76
22031;BME280;11179;52.106;21.024;2023-04-28T03:06:11;100968.19;;;-0.32;65.81
22031;BME280;11179;52.106;21.024;2023-04-28T03:08:37;100966.31;;;-0.31;65.81
22031;BME280;11179;52.106;21.024;2023-04-28T03:11:02;100964.47;;;-0.31;65.79
22031;BME280;11179;52.106;21.024;2023-04-28T03:13:27;100969.84;;;-0.31;66.00
22031;BME280;11179;52.106;21.024;2023-04-28T03:15:54;100966.81;;;-0.28;65.84
22031;BME280;11179;52.106;21.024;2023-04-28T03:18:19;100969.16;;;-0.25;65.93
22031;BME280;11179;52.106;21.024;2023-04-28T03:20:46;100974.22;;;-0.22;65.96
22031;BME280;11179;52.106;21.024;2023-04-28T03:23:12;100973.88;;;-0.18;65.98
22031;BME280;11179;52.106;21.024;2023-04-28T03:25:37;100970.84;;;-0.24;65.93
22031;BME280;11179;52.106;21.024;2023-04-28T03:28:02;100976.88;;;-0.13;65.93
22031;BME280;11179;52.106;21.024;2023-04-28T03:30:28;100983.94;;;-0.12;66.01
22031;BME280;11179;52.106;21.024;2023-04-28T03:32:53;100987.50;;;-0.12;65.92
22031;BME280;11179;52.106;21.024;2023-04-28T03:35:19;100989.19;;;-0.03;65.94
22031;BME280;11179;52.106;21.024;2023-04-28T03:37:44;100984.25;;;0.01;65.94
22031;BME280;11179;52.106;21.024;2023-04-28T03:40:10;100979.69;;;0.01;65.69
22031;BME280;11179;52.106;21.024;2023-04-28T03:42:35;100980.19;;;0.05;65.99
22031;BME280;11179;52.106;21.024;2023-04-28T03:45:00;100986.09;;;0.08;65.67
22031;BME280;11179;52.106;21.024;2023-04-28T03:47:26;100998.22;;;0.12;65.98
22031;BME280;11179;52.106;21.024;2023-04-28T03:49:52;100990.78;;;0.14;65.85
22031;BME280;11179;52.106;21.024;2023-04-28T03:52:18;100975.69;;;0.28;66.07
22031;BME280;11179;52.106;21.024;2023-04-28T03:54:43;100983.88;;;0.43;66.03
22031;BME280;11179;52.106;21.024;2023-04-28T03:57:08;100990.31;;;0.73;66.31
22031;BME280;11179;52.106;21.024;2023-04-28T03:59:34;100983.53;;;1.00;66.34
22031;BME280;11179;52.106;21.024;2023-04-28T04:01:59;100982.88;;;1.35;66.01
22031;BME280;11179;52.106;21.024;2023-04-28T04:04:24;100977.88;;;1.76;65.87
22031;BME280;11179;52.106;21.024;2023-04-28T04:06:51;100976.75;;;2.15;65.58
22031;BME280;11179;52.106;21.024;2023-04-28T04:09:16;100998.09;;;2.54;65.27
22031;BME280;11179;52.106;21.024;2023-04-28T04:11:41;100986.50;;;2.81;64.96
22031;BME280;11179;52.106;21.024;2023-04-28T04:14:07;100983.75;;;3.17;64.33
22031;BME280;11179;52.106;21.024;2023-04-28T04:16:32;100994.28;;;3.55;63.78
22031;BME280;11179;52.106;21.024;2023-04-28T04:18:58;100982.63;;;3.89;63.42
22031;BME280;11179;52.106;21.024;2023-04-28T04:21:23;100990.38;;;4.26;62.53
22031;BME280;11179;52.106;21.024;2023-04-28T04:23:48;100988.44;;;4.68;61.59
22031;BME280;11179;52.106;21.024;2023-04-28T04:26:14;100991.47;;;5.12;61.28
22031;BME280;11179;52.106;21.024;2023-04-28T04:28:39;100974.53;;;5.43;60.22
22031;BME280;11179;52.106;21.024;2023-04-28T04:31:05;100994.81;;;5.87;59.71
22031;BME280;11179;52.106;21.024;2023-04-28T04:33:30;100991.81;;;6.21;58.95
22031;BME280;11179;52.106;21.024;2023-04-28T04:35:55;100993.00;;;6.52;58.39
22031;BME280;11179;52.106;21.024;2023-04-28T04:38:21;100985.66;;;6.90;57.79
22031;BME280;11179;52.106;21.024;2023-04-28T04:40:46;100983.09;;;7.27;57.16
22031;BME280;11179;52.106;21.024;2023-04-28T04:43:12;100990.75;;;7.68;56.45
22031;BME280;11179;52.106;21.024;2023-04-28T04:45:37;100990.56;;;8.06;55.60
22031;BME280;11179;52.106;21.024;2023-04-28T04:48:03;100990.59;;;8.43;54.98
22031;BME280;11179;52.106;21.024;2023-04-28T04:50:28;100983.44;;;8.78;53.94
22031;BME280;11179;52.106;21.024;2023-04-28T04:52:54;100991.31;;;9.16;53.61
22031;BME280;11179;52.106;21.024;2023-04-28T04:55:21;100980.16;;;9.41;52.92
22031;BME280;11179;52.106;21.024;2023-04-28T04:57:46;100990.22;;;9.70;52.41
22031;BME280;11179;52.106;21.024;2023-04-28T05:00:12;100992.28;;;9.98;51.89
22031;BME280;11179;52.106;21.024;2023-04-28T05:02:37;100991.50;;;10.26;51.46
22031;BME280;11179;52.106;21.024;2023-04-28T05:05:04;100988.34;;;10.58;50.86
22031;BME280;11179;52.106;21.024;2023-04-28T05:07:29;100991.53;;;10.95;50.34
22031;BME280;11179;52.106;21.024;2023-04-28T05:09:55;100978.75;;;11.29;49.40
22031;BME280;11179;52.106;21.024;2023-04-28T05:12:21;100981.09;;;11.70;48.71
22031;BME280;11179;52.106;21.024;2023-04-28T05:14:46;100983.22;;;12.02;48.12
22031;BME280;11179;52.106;21.024;2023-04-28T05:17:11;100994.25;;;12.40;47.21
22031;BME280;11179;52.106;21.024;2023-04-28T05:19:37;100993.91;;;12.80;46.11
22031;BME280;11179;52.106;21.024;2023-04-28T05:22:02;100987.66;;;13.12;45.02
22031;BME280;11179;52.106;21.024;2023-04-28T05:24:27;100989.88;;;13.42;44.19
22031;BME280;11179;52.106;21.024;2023-04-28T05:26:54;100982.63;;;13.62;43.90
22031;BME280;11179;52.106;21.024;2023-04-28T05:29:22;100988.91;;;13.90;43.41
22031;BME280;11179;52.106;21.024;2023-04-28T05:31:47;100995.31;;;13.95;42.62
22031;BME280;11179;52.106;21.024;2023-04-28T05:34:12;100987.75;;;14.23;41.92
22031;BME280;11179;52.106;21.024;2023-04-28T05:36:38;100991.59;;;14.69;41.14
22031;BME280;11179;52.106;21.024;2023-04-28T05:39:03;100983.69;;;15.08;40.27
22031;BME280;11179;52.106;21.024;2023-04-28T05:41:28;100982.91;;;15.48;39.43
22031;BME280;11179;52.106;21.024;2023-04-28T05:43:54;100987.06;;;15.61;38.37
22031;BME280;11179;52.106;21.024;2023-04-28T05:46:19;100984.03;;;15.72;37.92
22031;BME280;11179;52.106;21.024;2023-04-28T05:48:44;100992.31;;;15.98;37.34
22031;BME280;11179;52.106;21.024;2023-04-28T05:51:10;100991.44;;;16.28;36.65
22031;BME280;11179;52.106;21.024;2023-04-28T05:53:35;100992.47;;;16.52;36.08
22031;BME280;11179;52.106;21.024;2023-04-28T05:56:01;100989.38;;;16.74;35.53
22031;BME280;11179;52.106;21.024;2023-04-28T05:58:27;100996.19;;;16.92;35.50
22031;BME280;11179;52.106;21.024;2023-04-28T06:00:52;100988.88;;;17.16;35.12
22031;BME280;11179;52.106;21.024;2023-04-28T06:03:19;100990.28;;;17.52;34.51
22031;BME280;11179;52.106;21.024;2023-04-28T06:05:44;100986.06;;;17.60;34.19
22031;BME280;11179;52.106;21.024;2023-04-28T06:08:10;100991.72;;;17.79;33.65
22031;BME280;11179;52.106;21.024;2023-04-28T06:10:35;100994.91;;;17.96;33.58
22031;BME280;11179;52.106;21.024;2023-04-28T06:13:00;100991.91;;;18.16;33.30
22031;BME280;11179;52.106;21.024;2023-04-28T06:15:29;100982.50;;;18.12;33.13
22031;BME280;11179;52.106;21.024;2023-04-28T06:17:54;100992.66;;;17.98;32.59
22031;BME280;11179;52.106;21.024;2023-04-28T06:20:20;100986.75;;;18.05;32.25
22031;BME280;11179;52.106;21.024;2023-04-28T06:22:45;100988.16;;;18.31;31.38
22031;BME280;11179;52.106;21.024;2023-04-28T06:25:11;100983.16;;;18.57;30.91
22031;BME280;11179;52.106;21.024;2023-04-28T06:27:36;100994.72;;;18.88;30.35
22031;BME280;11179;52.106;21.024;2023-04-28T06:30:02;100994.97;;;18.68;30.67
22031;BME280;11179;52.106;21.024;2023-04-28T06:32:27;100996.13;;;18.85;30.96
22031;BME280;11179;52.106;21.024;2023-04-28T06:34:52;100994.66;;;19.12;30.51
22031;BME280;11179;52.106;21.024;2023-04-28T06:37:18;101007.47;;;19.31;30.26
22031;BME280;11179;52.106;21.024;2023-04-28T06:39:43;100994.66;;;19.49;29.71
22031;BME280;11179;52.106;21.024;2023-04-28T06:42:08;100996.75;;;19.57;29.13
22031;BME280;11179;52.106;21.024;2023-04-28T06:44:34;100992.53;;;19.79;29.08
22031;BME280;11179;52.106;21.024;2023-04-28T06:46:59;100997.22;;;19.97;28.90
22031;BME280;11179;52.106;21.024;2023-04-28T06:49:25;100996.16;;;20.25;27.81
22031;BME280;11179;52.106;21.024;2023-04-28T06:51:51;100997.72;;;20.59;27.86
22031;BME280;11179;52.106;21.024;2023-04-28T06:54:17;100999.69;;;20.72;27.44
22031;BME280;11179;52.106;21.024;2023-04-28T06:56:42;100997.31;;;20.93;27.22
22031;BME280;11179;52.106;21.024;2023-04-28T06:59:07;100997.56;;;21.19;26.89
22031;BME280;11179;52.106;21.024;2023-04-28T07:01:33;100995.13;;;21.03;26.91
22031;BME280;11179;52.106;21.024;2023-04-28T07:03:58;100998.25;;;20.88;26.07
22031;BME280;11179;52.106;21.024;2023-04-28T07:06:23;100999.50;;;20.82;26.12
22031;BME280;11179;52.106;21.024;2023-04-28T07:08:51;100990.50;;;20.85;26.12
22031;BME280;11179;52.106;21.024;2023-04-28T07:11:16;100990.06;;;20.92;25.63
22031;BME280;11179;52.106;21.024;2023-04-28T07:13:42;100995.34;;;20.66;25.63
22031;BME280;11179;52.106;21.024;2023-04-28T07:16:07;100995.16;;;20.62;25.64
22031;BME280;11179;52.106;21.024;2023-04-28T07:18:34;100993.50;;;20.89;25.08
22031;BME280;11179;52.106;21.024;2023-04-28T07:20:59;100992.34;;;21.03;25.09
22031;BME280;11179;52.106;21.024;2023-04-28T07:23:25;100991.25;;;21.27;25.26
22031;BME280;11179;52.106;21.024;2023-04-28T07:25:50;100987.31;;;21.50;24.77
22031;BME280;11179;52.106;21.024;2023-04-28T07:28:15;100984.56;;;21.72;24.52
22031;BME280;11179;52.106;21.024;2023-04-28T07:30:41;100985.44;;;21.59;23.95
22031;BME280;11179;52.106;21.024;2023-04-28T07:33:06;100987.38;;;21.36;24.31
22031;BME280;11179;52.106;21.024;2023-04-28T07:35:32;100983.66;;;21.63;24.37
22031;BME280;11179;52.106;21.024;2023-04-28T07:37:57;100975.34;;;21.72;23.88
22031;BME280;11179;52.106;21.024;2023-04-28T07:40:23;100976.31;;;21.98;22.93
22031;BME280;11179;52.106;21.024;2023-04-28T07:42:48;100970.09;;;22.01;22.50
22031;BME280;11179;52.106;21.024;2023-04-28T07:45:14;100968.75;;;21.99;22.97
22031;BME280;11179;52.106;21.024;2023-04-28T07:47:42;100969.91;;;21.98;22.28
22031;BME280;11179;52.106;21.024;2023-04-28T07:50:08;100967.09;;;21.98;21.76
22031;BME280;11179;52.106;21.024;2023-04-28T07:52:34;100963.78;;;22.18;21.26
22031;BME280;11179;52.106;21.024;2023-04-28T07:54:59;100956.00;;;22.06;21.67
22031;BME280;11179;52.106;21.024;2023-04-28T07:57:25;100962.63;;;22.19;20.91
22031;BME280;11179;52.106;21.024;2023-04-28T07:59:51;100960.31;;;22.52;20.91
22031;BME280;11179;52.106;21.024;2023-04-28T08:02:16;100958.41;;;22.78;20.71
22031;BME280;11179;52.106;21.024;2023-04-28T08:04:43;100952.72;;;23.01;20.17
22031;BME280;11179;52.106;21.024;2023-04-28T08:07:09;100955.47;;;22.83;20.08
22031;BME280;11179;52.106;21.024;2023-04-28T08:09:34;100948.69;;;22.28;20.25
22031;BME280;11179;52.106;21.024;2023-04-28T08:12:00;100947.69;;;21.70;20.76
22031;BME280;11179;52.106;21.024;2023-04-28T08:14:26;100949.19;;;21.68;21.06
22031;BME280;11179;52.106;21.024;2023-04-28T08:16:52;100942.03;;;21.53;21.16
22031;BME280;11179;52.106;21.024;2023-04-28T08:19:17;100950.56;;;20.98;21.38
22031;BME280;11179;52.106;21.024;2023-04-28T08:21:43;100953.31;;;20.35;21.98
22031;BME280;11179;52.106;21.024;2023-04-28T08:24:08;100961.56;;;19.80;22.75
22031;BME280;11179;52.106;21.024;2023-04-28T08:26:35;100946.63;;;19.57;23.16
22031;BME280;11179;52.106;21.024;2023-04-28T08:29:01;100959.69;;;19.24;23.39
22031;BME280;11179;52.106;21.024;2023-04-28T08:31:27;100957.44;;;18.89;23.62
22031;BME280;11179;52.106;21.024;2023-04-28T08:33:52;100949.78;;;18.57;23.75
22031;BME280;11179;52.106;21.024;2023-04-28T08:36:17;100950.94;;;18.75;23.47
22031;BME280;11179;52.106;21.024;2023-04-28T08:38:44;100944.56;;;19.12;23.16
22031;BME280;11179;52.106;21.024;2023-04-28T08:41:12;100948.47;;;19.11;22.54
22031;BME280;11179;52.106;21.024;2023-04-28T08:43:38;100947.69;;;18.68;23.06
22031;BME280;11179;52.106;21.024;2023-04-28T08:46:07;100939.19;;;18.78;22.95
22031;BME280;11179;52.106;21.024;2023-04-28T08:48:40;100936.44;;;19.34;22.22
22031;BME280;11179;52.106;21.024;2023-04-28T08:51:06;100934.72;;;19.84;22.01
22031;BME280;11179;52.106;21.024;2023-04-28T08:53:36;100936.38;;;19.85;22.12
22031;BME280;11179;52.106;21.024;2023-04-28T08:56:04;100934.53;;;19.48;22.29
22031;BME280;11179;52.106;21.024;2023-04-28T08:58:30;100937.31;;;19.81;22.01
22031;BME280;11179;52.106;21.024;2023-04-28T09:00:55;100928.59;;;20.01;21.74
22031;BME280;11179;52.106;21.024;2023-04-28T09:03:21;100928.34;;;19.51;22.48
22031;BME280;11179;52.106;21.024;2023-04-28T09:05:46;100925.31;;;19.15;22.78
22031;BME280;11179;52.106;21.024;2023-04-28T09:08:12;100922.56;;;19.48;22.62
22031;BME280;11179;52.106;21.024;2023-04-28T09:10:37;100921.97;;;19.97;22.80
22031;BME280;11179;52.106;21.024;2023-04-28T09:13:03;100920.75;;;20.44;22.34
22031;BME280;11179;52.106;21.024;2023-04-28T09:15:31;100913.28;;;20.81;21.42
22031;BME280;11179;52.106;21.024;2023-04-28T09:17:58;100922.47;;;20.81;21.59
22031;BME280;11179;52.106;21.024;2023-04-28T09:20:25;100920.44;;;20.18;22.19
22031;BME280;11179;52.106;21.024;2023-04-28T09:22:52;100927.91;;;19.44;22.03
22031;BME280;11179;52.106;21.024;2023-04-28T09:25:19;100921.69;;;18.77;22.25
22031;BME280;11179;52.106;21.024;2023-04-28T09:27:46;100912.19;;;18.59;22.61
22031;BME280;11179;52.106;21.024;2023-04-28T09:30:12;100910.94;;;18.89;23.15
22031;BME280;11179;52.106;21.024;2023-04-28T09:32:37;100920.34;;;18.75;22.79
22031;BME280;11179;52.106;21.024;2023-04-28T09:35:03;100916.09;;;18.58;22.62
22031;BME280;11179;52.106;21.024;2023-04-28T09:37:29;100908.56;;;18.40;22.73
22031;BME280;11179;52.106;21.024;2023-04-28T09:39:57;100907.88;;;18.24;22.90
22031;BME280;11179;52.106;21.024;2023-04-28T09:42:43;100905.53;;;18.13;22.93
22031;BME280;11179;52.106;21.024;2023-04-28T09:45:13;100902.44;;;17.90;23.55
22031;BME280;11179;52.106;21.024;2023-04-28T09:47:41;100903.25;;;17.67;23.44
22031;BME280;11179;52.106;21.024;2023-04-28T09:50:09;100899.31;;;17.39;23.75
22031;BME280;11179;52.106;21.024;2023-04-28T09:52:37;100902.22;;;17.24;23.82
22031;BME280;11179;52.106;21.024;2023-04-28T09:55:04;100892.69;;;17.01;24.42
22031;BME280;11179;52.106;21.024;2023-04-28T09:57:32;100900.53;;;16.89;24.91
22031;BME280;11179;52.106;21.024;2023-04-28T10:00:00;100886.31;;;16.96;24.66
22031;BME280;11179;52.106;21.024;2023-04-28T10:02:26;100889.28;;;16.65;24.67
22031;BME280;11179;52.106;21.024;2023-04-28T10:04:52;100887.13;;;16.62;24.46
22031;BME280;11179;52.106;21.024;2023-04-28T10:07:19;100878.44;;;16.74;24.23
22031;BME280;11179;52.106;21.024;2023-04-28T10:09:51;100878.72;;;16.72;24.34
22031;BME280;11179;52.106;21.024;2023-04-28T10:12:17;100875.78;;;16.48;24.21
22031;BME280;11179;52.106;21.024;2023-04-28T10:14:43;100867.94;;;16.01;23.73
22031;BME280;11179;52.106;21.024;2023-04-28T10:17:12;100863.91;;;15.53;23.67
22031;BME280;11179;52.106;21.024;2023-04-28T10:19:40;100862.25;;;15.22;24.16
22031;BME280;11179;52.106;21.024;2023-04-28T10:25:06;100856.25;;;16.20;23.81
22031;BME280;11179;52.106;21.024;2023-04-28T10:27:34;100858.22;;;16.68;23.34
22031;BME280;11179;52.106;21.024;2023-04-28T10:30:23;100852.63;;;17.12;22.90
22031;BME280;11179;52.106;21.024;2023-04-28T10:35:46;100838.31;;;17.87;23.07
22031;BME280;11179;52.106;21.024;2023-04-28T10:38:18;100841.31;;;18.14;23.24
22031;BME280;11179;52.106;21.024;2023-04-28T10:40:51;100850.19;;;18.16;22.54
22031;BME280;11179;52.106;21.024;2023-04-28T10:48:18;100836.47;;;18.01;22.52
22031;BME280;11179;52.106;21.024;2023-04-28T10:58:43;100832.44;;;18.55;22.51
22031;BME280;11179;52.106;21.024;2023-04-28T11:03:56;100828.69;;;17.79;23.06
22031;BME280;11179;52.106;21.024;2023-04-28T11:09:02;100824.91;;;17.12;23.34
22031;BME280;11179;52.106;21.024;2023-04-28T11:11:32;100825.03;;;16.97;23.11
22031;BME280;11179;52.106;21.024;2023-04-28T11:16:49;100818.84;;;16.71;24.33
22031;BME280;11179;52.106;21.024;2023-04-28T11:19:23;100821.63;;;16.66;24.45
22031;BME280;11179;52.106;21.024;2023-04-28T11:21:51;100816.63;;;16.68;24.51
22031;BME280;11179;52.106;21.024;2023-04-28T11:24:17;100813.72;;;16.89;24.16
22031;BME280;11179;52.106;21.024;2023-04-28T11:26:43;100809.91;;;17.13;24.43
22031;BME280;11179;52.106;21.024;2023-04-28T11:29:10;100812.97;;;17.41;24.15
22031;BME280;11179;52.106;21.024;2023-04-28T11:31:36;100787.84;;;16.98;23.56
22031;BME280;11179;52.106;21.024;2023-04-28T11:34:06;100811.06;;;16.73;24.07
22031;BME280;11179;52.106;21.024;2023-04-28T11:36:36;100807.09;;;16.84;24.16
22031;BME280;11179;52.106;21.024;2023-04-28T11:39:06;100806.88;;;17.10;24.65
22031;BME280;11179;52.106;21.024;2023-04-28T11:41:33;100796.75;;;17.24;24.82
22031;BME280;11179;52.106;21.024;2023-04-28T11:44:00;100806.16;;;17.28;24.56
22031;BME280;11179;52.106;21.024;2023-04-28T11:46:25;100799.56;;;17.19;24.52
22031;BME280;11179;52.106;21.024;2023-04-28T11:49:04;100798.94;;;17.27;24.73
22031;BME280;11179;52.106;21.024;2023-04-28T11:51:34;100796.28;;;17.17;23.73
22031;BME280;11179;52.106;21.024;2023-04-28T11:54:01;100791.06;;;17.10;24.20
22031;BME280;11179;52.106;21.024;2023-04-28T11:56:27;100793.25;;;16.79;24.30
22031;BME280;11179;52.106;21.024;2023-04-28T11:59:10;100792.59;;;16.53;23.70
22031;BME280;11179;52.106;21.024;2023-04-28T12:01:47;100802.44;;;16.31;24.72
22031;BME280;11179;52.106;21.024;2023-04-28T12:04:13;100795.78;;;16.32;24.73
22031;BME280;11179;52.106;21.024;2023-04-28T12:06:39;100789.06;;;16.43;24.73
22031;BME280;11179;52.106;21.024;2023-04-28T12:09:15;100780.19;;;16.41;24.68
22031;BME280;11179;52.106;21.024;2023-04-28T12:11:54;100787.19;;;16.33;25.57
22031;BME280;11179;52.106;21.024;2023-04-28T12:14:21;100786.94;;;16.25;25.33
22031;BME280;11179;52.106;21.024;2023-04-28T12:16:47;100794.53;;;16.09;25.08
22031;BME280;11179;52.106;21.024;2023-04-28T12:19:14;100783.53;;;15.94;25.42
22031;BME280;11179;52.106;21.024;2023-04-28T12:21:40;100777.72;;;15.85;25.14
22031;BME280;11179;52.106;21.024;2023-04-28T12:24:18;100776.00;;;15.99;25.66
22031;BME280;11179;52.106;21.024;2023-04-28T12:26:44;100775.72;;;16.01;25.27
22031;BME280;11179;52.106;21.024;2023-04-28T12:29:36;100770.94;;;16.16;25.11
22031;BME280;11179;52.106;21.024;2023-04-28T12:32:06;100764.75;;;16.35;25.15
22031;BME280;11179;52.106;21.024;2023-04-28T12:34:32;100757.84;;;16.27;25.13
22031;BME280;11179;52.106;21.024;2023-04-28T12:36:59;100758.19;;;16.21;25.09
22031;BME280;11179;52.106;21.024;2023-04-28T12:39:25;100751.25;;;16.23;25.27
22031;BME280;11179;52.106;21.024;2023-04-28T12:41:51;100752.38;;;16.12;25.58
22031;BME280;11179;52.106;21.024;2023-04-28T12:44:18;100745.25;;;16.06;25.57
22031;BME280;11179;52.106;21.024;2023-04-28T12:46:43;100756.59;;;16.09;25.76
22031;BME280;11179;52.106;21.024;2023-04-28T12:49:08;100742.41;;;16.11;25.74
22031;BME280;11179;52.106;21.024;2023-04-28T12:51:34;100744.59;;;16.19;25.96
22031;BME280;11179;52.106;21.024;2023-04-28T12:54:00;100742.03;;;16.28;26.04
22031;BME280;11179;52.106;21.024;2023-04-28T12:56:25;100740.97;;;16.24;25.11
22031;BME280;11179;52.106;21.024;2023-04-28T12:58:51;100740.47;;;16.11;25.19
22031;BME280;11179;52.106;21.024;2023-04-28T13:01:16;100736.56;;;16.17;26.45
22031;BME280;11179;52.106;21.024;2023-04-28T13:03:42;100739.56;;;16.26;26.12
22031;BME280;11179;52.106;21.024;2023-04-28T13:06:08;100737.81;;;16.40;26.16